createdAt,value
2023-04-11T00:01:34.803Z,34.40
2023-04-11T00:06:37.102Z,32.67
2023-04-11T00:11:39.464Z,42.70
2023-04-11T00:16:42.937Z,41.00
2023-04-11T00:21:45.533Z,40.77
2023-04-11T00:26:47.825Z,39.80
2023-04-11T00:31:50.447Z,36.30
2023-04-11T00:36:52.924Z,37.37
2023-04-11T00:42:07.477Z,34.37
2023-04-11T00:47:09.941Z,37.17
2023-04-11T00:52:14.009Z,35.10
2023-04-11T00:57:16.491Z,32.63
2023-04-11T01:02:19.411Z,44.47
2023-04-11T01:07:23.033Z,32.13
2023-04-11T01:12:25.922Z,39.23
2023-04-11T01:17:28.255Z,30.07
2023-04-11T01:22:30.943Z,28.27
2023-04-11T01:27:34.465Z,38.27
2023-04-11T01:32:37.010Z,35.20
2023-04-11T01:37:39.846Z,32.30
2023-04-11T01:42:42.770Z,33.60
2023-04-11T01:47:45.398Z,36.10
2023-04-11T01:52:51.702Z,28.07
2023-04-11T01:57:54.003Z,34.57
2023-04-11T02:02:56.798Z,33.80
2023-04-11T02:07:59.106Z,30.00
2023-04-11T02:13:01.399Z,27.33
2023-04-11T02:18:03.863Z,30.60
2023-04-11T02:23:06.349Z,26.47
2023-04-11T02:28:08.609Z,31.67
2023-04-11T02:33:10.965Z,28.67
2023-04-11T02:38:13.412Z,31.57
2023-04-11T02:43:16.562Z,31.77
2023-04-11T02:48:18.816Z,35.73
2023-04-11T02:53:22.019Z,38.13
2023-04-11T02:58:26.273Z,37.63
2023-04-11T03:03:32.574Z,32.10
2023-04-11T03:08:36.443Z,25.80
2023-04-11T03:13:39.746Z,36.83
2023-04-11T03:18:42.160Z,31.70
2023-04-11T03:23:47.164Z,31.73
2023-04-11T03:28:51.109Z,31.03
2023-04-11T03:33:55.197Z,28.47
2023-04-11T03:38:58.560Z,26.63
2023-04-11T03:44:01.259Z,26.80
2023-04-11T03:49:03.743Z,27.00
2023-04-11T03:54:06.629Z,29.90
2023-04-11T03:59:13.174Z,33.47
2023-04-11T04:04:26.768Z,31.80
2023-04-11T04:09:42.255Z,27.30
2023-04-11T04:14:46.336Z,27.90
2023-04-11T04:19:52.040Z,27.70
2023-04-11T04:24:58.419Z,27.77
2023-04-11T04:30:08.031Z,31.13
2023-04-11T04:35:30.094Z,23.30
2023-04-11T04:40:40.492Z,27.33
2023-04-11T04:50:48.819Z,27.57
2023-04-11T04:55:51.761Z,25.00
2023-04-11T05:00:56.427Z,25.57
2023-04-11T05:06:04.370Z,26.83
2023-04-11T05:11:07.470Z,29.97
2023-04-11T05:16:11.548Z,25.33
2023-04-11T05:21:15.015Z,30.60
2023-04-11T05:26:19.950Z,31.13
2023-04-11T05:31:22.609Z,28.07
2023-04-11T05:36:26.158Z,29.07
2023-04-11T05:41:28.585Z,30.70
2023-04-11T05:46:31.057Z,30.63
2023-04-11T05:51:33.529Z,27.17
2023-04-11T05:56:37.765Z,28.97
2023-04-11T06:01:40.551Z,24.23
2023-04-11T06:06:43.806Z,28.60
2023-04-11T06:11:48.297Z,30.37
2023-04-11T06:16:50.602Z,24.63
2023-04-11T06:21:52.972Z,25.30
2023-04-11T06:26:55.263Z,23.23
2023-04-11T06:31:59.141Z,21.73
2023-04-11T06:37:01.527Z,25.03
2023-04-11T06:42:04.500Z,28.57
2023-04-11T06:47:08.572Z,27.90
2023-04-11T06:52:11.024Z,27.33
2023-04-11T06:57:13.857Z,21.33
2023-04-11T07:02:16.315Z,23.07
2023-04-11T07:07:18.682Z,23.83
2023-04-11T07:12:21.152Z,29.07
2023-04-11T07:17:23.612Z,23.10
2023-04-11T07:22:26.053Z,22.00
2023-04-11T07:27:29.204Z,27.77
2023-04-11T07:32:31.542Z,24.33
2023-04-11T07:37:34.268Z,23.20
2023-04-11T07:42:36.673Z,23.23
2023-04-11T07:47:39.045Z,25.50
2023-04-11T07:52:41.400Z,20.07
2023-04-11T07:57:43.726Z,19.77
2023-04-11T08:02:46.496Z,20.97
2023-04-11T08:07:48.907Z,22.97
2023-04-11T08:12:51.261Z,22.03
2023-04-11T08:17:56.975Z,20.23
2023-04-11T08:22:59.807Z,17.77
2023-04-11T08:28:02.736Z,20.50
2023-04-11T08:33:05.196Z,21.73
2023-04-11T08:38:07.485Z,19.53
2023-04-11T08:43:12.584Z,18.13
2023-04-11T08:48:15.347Z,19.47
2023-04-11T08:53:19.228Z,20.60
2023-04-11T08:58:21.776Z,20.97
2023-04-11T09:03:24.447Z,17.60
2023-04-11T09:08:38.349Z,16.43
2023-04-11T09:13:40.755Z,15.53
2023-04-11T09:18:45.440Z,19.40
2023-04-11T09:23:47.794Z,16.27
2023-04-11T09:28:54.106Z,14.33
2023-04-11T09:33:59.363Z,14.67
2023-04-11T09:39:17.330Z,17.30
2023-04-11T09:44:19.658Z,15.27
2023-04-11T09:49:23.580Z,15.93
2023-04-11T09:54:27.751Z,14.73
2023-04-11T09:59:30.525Z,13.87
2023-04-11T10:04:34.966Z,15.27
2023-04-11T10:09:43.385Z,18.67
2023-04-11T10:14:45.965Z,19.03
2023-04-11T10:19:49.175Z,15.77
2023-04-11T10:25:17.445Z,16.23
2023-04-11T10:30:39.804Z,15.03
2023-04-11T10:36:11.103Z,11.57
2023-04-11T10:41:34.170Z,14.83
2023-04-11T10:46:44.884Z,13.87
2023-04-11T10:51:47.445Z,12.83
2023-04-11T10:56:51.001Z,15.37
2023-04-11T11:01:56.192Z,13.57
2023-04-11T11:07:01.698Z,12.37
2023-04-11T11:12:08.730Z,11.43
2023-04-11T11:17:16.084Z,12.43
2023-04-11T11:22:19.597Z,13.37
2023-04-11T11:27:23.916Z,12.43
2023-04-11T11:32:30.307Z,11.33
2023-04-11T11:37:32.709Z,11.03
2023-04-11T11:42:37.007Z,12.40
2023-04-11T11:47:43.755Z,13.53
2023-04-11T11:52:49.049Z,12.63
2023-04-11T11:57:51.469Z,17.57
2023-04-11T12:02:55.785Z,17.87
2023-04-11T12:07:59.956Z,20.03
2023-04-11T12:13:02.383Z,21.00
2023-04-11T12:18:07.140Z,14.97
2023-04-11T12:23:09.650Z,13.33
2023-04-11T12:28:12.616Z,14.70
2023-04-11T12:33:15.101Z,13.43
2023-04-11T12:38:18.196Z,19.37
2023-04-11T12:43:21.046Z,25.07
2023-04-11T12:48:23.401Z,12.60
2023-04-11T12:53:25.719Z,15.50
2023-04-11T12:58:29.169Z,24.87
2023-04-11T13:03:31.737Z,16.83
2023-04-11T13:08:34.174Z,14.40
2023-04-11T13:13:37.021Z,17.23
2023-04-11T13:18:39.502Z,10.90
2023-04-11T13:23:41.964Z,13.63
2023-04-11T13:28:44.349Z,11.47
2023-04-11T13:33:48.339Z,13.67
2023-04-11T13:38:51.690Z,15.30
2023-04-11T13:43:54.518Z,10.63
2023-04-11T13:48:57.254Z,10.87
2023-04-11T13:54:02.697Z,12.20
2023-04-11T13:59:05.187Z,12.67
2023-04-11T14:04:07.921Z,12.40
2023-04-11T14:09:10.789Z,10.10
2023-04-11T14:14:13.120Z,14.87
2023-04-11T14:19:16.169Z,31.63
2023-04-11T14:24:22.394Z,27.60
2023-04-11T14:29:26.342Z,25.77
2023-04-11T14:34:29.100Z,26.00
2023-04-11T14:39:32.043Z,31.23
2023-04-11T14:44:35.818Z,32.77
2023-04-11T14:49:38.149Z,37.50
2023-04-11T14:54:40.550Z,25.37
2023-04-11T14:59:45.657Z,43.20
2023-04-11T15:04:48.077Z,43.03
2023-04-11T15:09:50.394Z,40.40
2023-04-11T15:14:52.845Z,46.63
2023-04-11T15:19:55.431Z,36.30
2023-04-11T15:24:57.881Z,45.77
2023-04-11T15:30:02.588Z,29.53
2023-04-11T15:35:05.709Z,34.27
2023-04-11T15:40:12.558Z,57.43
2023-04-11T15:45:15.052Z,52.70
2023-04-11T15:50:17.904Z,51.60
2023-04-11T15:55:20.383Z,50.13
2023-04-11T16:00:27.644Z,53.67
2023-04-11T16:05:33.441Z,37.70
2023-04-11T16:10:35.936Z,46.93
2023-04-11T16:15:38.390Z,61.30
2023-04-11T16:20:41.905Z,65.23
2023-04-11T16:25:45.538Z,37.30
2023-04-11T16:30:48.725Z,46.27
2023-04-11T16:35:51.442Z,42.23
2023-04-11T16:40:54.023Z,42.33
2023-04-11T16:45:56.491Z,46.07
2023-04-11T16:50:58.965Z,37.83
2023-04-11T16:56:01.494Z,47.83
2023-04-11T17:01:04.277Z,35.73
2023-04-11T17:06:16.804Z,47.17
2023-04-11T17:11:19.526Z,48.90
2023-04-11T17:16:22.095Z,43.70
2023-04-11T17:21:24.797Z,55.90
2023-04-11T17:26:27.271Z,52.23
2023-04-11T17:31:30.199Z,57.33
2023-04-11T17:36:32.598Z,61.33
2023-04-11T17:41:35.027Z,64.93
2023-04-11T17:46:37.675Z,50.83
2023-04-11T17:51:48.884Z,30.00
2023-04-11T17:56:55.247Z,27.50
2023-04-11T18:01:57.908Z,38.07
2023-04-11T18:07:01.105Z,51.43
2023-04-11T18:12:03.528Z,30.03
2023-04-11T18:17:05.917Z,38.83
2023-04-11T18:22:08.579Z,36.77
2023-04-11T18:27:11.371Z,39.90
2023-04-11T18:32:14.688Z,35.53
2023-04-11T18:37:18.047Z,38.87
2023-04-11T18:42:20.359Z,60.40
2023-04-11T18:47:22.776Z,49.33
2023-04-11T18:52:25.844Z,54.80
2023-04-11T18:57:33.752Z,49.30
2023-04-11T19:02:37.720Z,41.43
2023-04-11T19:07:43.180Z,35.60
2023-04-11T19:12:45.643Z,30.93
2023-04-11T19:17:48.064Z,31.77
2023-04-11T19:22:51.946Z,39.67
2023-04-11T19:27:54.256Z,34.33
2023-04-11T19:32:57.586Z,28.57
2023-04-11T19:38:02.684Z,31.63
2023-04-11T19:43:05.276Z,38.23
2023-04-11T19:48:07.677Z,36.00
2023-04-11T19:53:10.179Z,37.07
2023-04-11T19:58:12.617Z,29.13
2023-04-11T20:03:15.254Z,40.83
2023-04-11T20:08:18.185Z,30.30
2023-04-11T20:13:20.589Z,38.47
2023-04-11T20:18:22.956Z,38.73
2023-04-11T20:23:25.259Z,38.17
2023-04-11T20:28:27.655Z,27.80
2023-04-11T20:33:30.205Z,33.23
2023-04-11T20:38:32.702Z,39.80
2023-04-11T20:43:42.162Z,32.73
2023-04-11T20:53:46.906Z,29.30
2023-04-11T20:58:49.377Z,33.47
2023-04-11T21:03:52.028Z,31.70
2023-04-11T21:08:54.489Z,35.07
2023-04-11T21:13:57.044Z,38.83
2023-04-11T21:18:59.442Z,32.17
2023-04-11T21:24:02.266Z,37.00
2023-04-11T21:29:04.623Z,38.93
2023-04-11T21:34:07.214Z,37.60
2023-04-11T21:39:09.624Z,31.30
2023-04-11T21:44:11.957Z,31.13
2023-04-11T21:49:14.452Z,33.37
2023-04-11T21:54:16.854Z,42.90
2023-04-11T21:59:19.324Z,41.90
2023-04-11T22:04:21.870Z,34.20
2023-04-11T22:09:24.944Z,33.00
2023-04-11T22:14:29.527Z,35.73
2023-04-11T22:19:34.054Z,40.20
2023-04-11T22:24:38.649Z,26.33
2023-04-11T22:29:41.695Z,32.10
2023-04-11T22:34:44.002Z,34.10
2023-04-11T22:39:47.100Z,36.13
2023-04-11T22:44:49.376Z,42.43
2023-04-11T22:49:51.713Z,37.80
2023-04-11T22:54:55.228Z,37.50
2023-04-11T23:00:00.515Z,33.33
2023-04-11T23:05:04.189Z,41.20
2023-04-11T23:10:09.455Z,36.53
2023-04-11T23:15:12.851Z,36.03
2023-04-11T23:20:15.413Z,30.93
2023-04-11T23:25:17.791Z,34.83
2023-04-11T23:30:20.710Z,36.87
2023-04-11T23:35:24.013Z,40.13
2023-04-11T23:40:26.403Z,29.00
2023-04-11T23:45:28.753Z,36.10
2023-04-11T23:50:31.056Z,27.67
2023-04-11T23:55:33.372Z,31.00
